sensor_id;sensor_type;location;lat;lon;timestamp;P1;durP1;ratioP1;P2;durP2;ratioP2
21831;SDS011;11078;49.872;6.188;2022-08-23T00:01:34;1.85;;;1.40;;
21831;SDS011;11078;49.872;6.188;2022-08-23T00:04:06;2.90;;;1.42;;
21831;SDS011;11078;49.872;6.188;2022-08-23T00:06:35;3.92;;;1.50;;
21831;SDS011;11078;49.872;6.188;2022-08-23T00:09:01;2.17;;;1.45;;
21831;SDS011;11078;49.872;6.188;2022-08-23T00:11:29;1.75;;;1.40;;
21831;SDS011;11078;49.872;6.188;2022-08-23T00:14:08;3.00;;;1.60;;
21831;SDS011;11078;49.872;6.188;2022-08-23T00:16:37;4.20;;;1.42;;
21831;SDS011;11078;49.872;6.188;2022-08-23T00:19:05;2.33;;;1.48;;
21831;SDS011;11078;49.872;6.188;2022-08-23T00:21:33;3.45;;;1.40;;
21831;SDS011;11078;49.872;6.188;2022-08-23T00:24:01;1.95;;;1.63;;
21831;SDS011;11078;49.872;6.188;2022-08-23T00:26:46;3.53;;;1.52;;
21831;SDS011;11078;49.872;6.188;2022-08-23T00:29:26;1.92;;;1.30;;
21831;SDS011;11078;49.872;6.188;2022-08-23T00:31:56;2.72;;;1.50;;
21831;SDS011;11078;49.872;6.188;2022-08-23T00:34:22;7.22;;;1.55;;
21831;SDS011;11078;49.872;6.188;2022-08-23T00:36:48;1.73;;;1.38;;
21831;SDS011;11078;49.872;6.188;2022-08-23T00:39:15;1.73;;;1.35;;
21831;SDS011;11078;49.872;6.188;2022-08-23T00:41:42;1.50;;;1.23;;
21831;SDS011;11078;49.872;6.188;2022-08-23T00:44:13;2.58;;;1.80;;
21831;SDS011;11078;49.872;6.188;2022-08-23T00:46:59;3.42;;;1.73;;
21831;SDS011;11078;49.872;6.188;2022-08-23T00:49:41;2.17;;;1.83;;
21831;SDS011;11078;49.872;6.188;2022-08-23T00:52:17;2.35;;;1.80;;
21831;SDS011;11078;49.872;6.188;2022-08-23T00:54:53;4.13;;;1.65;;
21831;SDS011;11078;49.872;6.188;2022-08-23T00:57:19;2.47;;;1.60;;
21831;SDS011;11078;49.872;6.188;2022-08-23T00:59:46;3.70;;;1.48;;
21831;SDS011;11078;49.872;6.188;2022-08-23T01:02:12;1.77;;;1.60;;
21831;SDS011;11078;49.872;6.188;2022-08-23T01:04:40;2.15;;;1.45;;
21831;SDS011;11078;49.872;6.188;2022-08-23T01:07:13;4.38;;;1.63;;
21831;SDS011;11078;49.872;6.188;2022-08-23T01:09:57;3.33;;;1.88;;
21831;SDS011;11078;49.872;6.188;2022-08-23T01:12:28;1.70;;;1.30;;
21831;SDS011;11078;49.872;6.188;2022-08-23T01:15:02;2.17;;;1.40;;
21831;SDS011;11078;49.872;6.188;2022-08-23T01:17:35;2.13;;;1.60;;
21831;SDS011;11078;49.872;6.188;2022-08-23T01:20:06;2.75;;;1.60;;
21831;SDS011;11078;49.872;6.188;2022-08-23T01:22:41;2.15;;;1.70;;
21831;SDS011;11078;49.872;6.188;2022-08-23T01:25:17;2.10;;;1.38;;
21831;SDS011;11078;49.872;6.188;2022-08-23T01:27:46;2.22;;;1.45;;
21831;SDS011;11078;49.872;6.188;2022-08-23T01:30:14;1.80;;;1.42;;
21831;SDS011;11078;49.872;6.188;2022-08-23T01:32:45;3.63;;;1.60;;
21831;SDS011;11078;49.872;6.188;2022-08-23T01:35:14;4.10;;;1.63;;
21831;SDS011;11078;49.872;6.188;2022-08-23T01:37:41;2.00;;;1.80;;
21831;SDS011;11078;49.872;6.188;2022-08-23T01:40:08;6.50;;;1.55;;
21831;SDS011;11078;49.872;6.188;2022-08-23T01:42:34;2.10;;;1.40;;
21831;SDS011;11078;49.872;6.188;2022-08-23T01:45:00;3.78;;;1.60;;
21831;SDS011;11078;49.872;6.188;2022-08-23T01:47:27;2.53;;;1.50;;
21831;SDS011;11078;49.872;6.188;2022-08-23T01:49:53;1.88;;;1.40;;
21831;SDS011;11078;49.872;6.188;2022-08-23T01:52:19;2.53;;;1.58;;
21831;SDS011;11078;49.872;6.188;2022-08-23T01:54:45;2.80;;;1.30;;
21831;SDS011;11078;49.872;6.188;2022-08-23T01:57:11;1.48;;;1.38;;
21831;SDS011;11078;49.872;6.188;2022-08-23T01:59:37;1.52;;;1.27;;
21831;SDS011;11078;49.872;6.188;2022-08-23T02:02:03;2.97;;;1.58;;
21831;SDS011;11078;49.872;6.188;2022-08-23T02:04:29;2.88;;;1.33;;
21831;SDS011;11078;49.872;6.188;2022-08-23T02:06:55;2.40;;;1.60;;
21831;SDS011;11078;49.872;6.188;2022-08-23T02:09:21;2.15;;;1.70;;
21831;SDS011;11078;49.872;6.188;2022-08-23T02:11:47;2.10;;;1.60;;
21831;SDS011;11078;49.872;6.188;2022-08-23T02:14:15;1.75;;;1.50;;
21831;SDS011;11078;49.872;6.188;2022-08-23T02:16:45;2.67;;;1.60;;
21831;SDS011;11078;49.872;6.188;2022-08-23T02:19:13;3.10;;;1.70;;
21831;SDS011;11078;49.872;6.188;2022-08-23T02:21:40;4.03;;;1.50;;
21831;SDS011;11078;49.872;6.188;2022-08-23T02:24:09;3.05;;;1.40;;
21831;SDS011;11078;49.872;6.188;2022-08-23T02:26:43;4.63;;;1.67;;
21831;SDS011;11078;49.872;6.188;2022-08-23T02:29:11;2.35;;;1.58;;
21831;SDS011;11078;49.872;6.188;2022-08-23T02:31:38;2.50;;;1.60;;
21831;SDS011;11078;49.872;6.188;2022-08-23T02:34:05;1.42;;;1.33;;
21831;SDS011;11078;49.872;6.188;2022-08-23T02:36:31;1.85;;;1.58;;
21831;SDS011;11078;49.872;6.188;2022-08-23T02:38:58;2.88;;;1.63;;
21831;SDS011;11078;49.872;6.188;2022-08-23T02:41:24;3.08;;;1.50;;
21831;SDS011;11078;49.872;6.188;2022-08-23T02:43:51;1.88;;;1.50;;
21831;SDS011;11078;49.872;6.188;2022-08-23T02:46:18;5.10;;;1.70;;
21831;SDS011;11078;49.872;6.188;2022-08-23T02:48:45;2.40;;;1.77;;
21831;SDS011;11078;49.872;6.188;2022-08-23T02:51:11;1.60;;;1.50;;
21831;SDS011;11078;49.872;6.188;2022-08-23T02:53:38;1.88;;;1.48;;
21831;SDS011;11078;49.872;6.188;2022-08-23T02:56:04;2.10;;;1.75;;
21831;SDS011;11078;49.872;6.188;2022-08-23T02:58:30;2.72;;;1.67;;
21831;SDS011;11078;49.872;6.188;2022-08-23T03:00:57;3.45;;;1.60;;
21831;SDS011;11078;49.872;6.188;2022-08-23T03:03:23;1.75;;;1.38;;
21831;SDS011;11078;49.872;6.188;2022-08-23T03:05:50;1.90;;;1.67;;
21831;SDS011;11078;49.872;6.188;2022-08-23T03:08:16;2.20;;;1.70;;
21831;SDS011;11078;49.872;6.188;2022-08-23T03:10:43;3.22;;;1.60;;
21831;SDS011;11078;49.872;6.188;2022-08-23T03:13:11;3.17;;;2.00;;
21831;SDS011;11078;49.872;6.188;2022-08-23T03:15:38;1.67;;;1.55;;
21831;SDS011;11078;49.872;6.188;2022-08-23T03:18:04;3.45;;;1.73;;
21831;SDS011;11078;49.872;6.188;2022-08-23T03:20:30;2.60;;;1.70;;
21831;SDS011;11078;49.872;6.188;2022-08-23T03:22:57;1.58;;;1.40;;
21831;SDS011;11078;49.872;6.188;2022-08-23T03:25:25;3.90;;;1.73;;
21831;SDS011;11078;49.872;6.188;2022-08-23T03:27:51;2.55;;;1.70;;
21831;SDS011;11078;49.872;6.188;2022-08-23T03:30:17;2.20;;;1.50;;
21831;SDS011;11078;49.872;6.188;2022-08-23T03:32:43;2.55;;;1.67;;
21831;SDS011;11078;49.872;6.188;2022-08-23T03:35:09;3.53;;;1.52;;
21831;SDS011;11078;49.872;6.188;2022-08-23T03:37:35;4.20;;;1.50;;
21831;SDS011;11078;49.872;6.188;2022-08-23T03:40:01;1.60;;;1.50;;
21831;SDS011;11078;49.872;6.188;2022-08-23T03:42:29;1.83;;;1.50;;
21831;SDS011;11078;49.872;6.188;2022-08-23T03:44:55;2.97;;;1.42;;
21831;SDS011;11078;49.872;6.188;2022-08-23T03:47:21;2.08;;;1.52;;
21831;SDS011;11078;49.872;6.188;2022-08-23T03:49:47;1.70;;;1.60;;
21831;SDS011;11078;49.872;6.188;2022-08-23T03:52:13;1.60;;;1.50;;
21831;SDS011;11078;49.872;6.188;2022-08-23T03:54:39;2.85;;;1.63;;
21831;SDS011;11078;49.872;6.188;2022-08-23T03:57:05;3.72;;;1.60;;
21831;SDS011;11078;49.872;6.188;2022-08-23T03:59:34;2.95;;;1.60;;
21831;SDS011;11078;49.872;6.188;2022-08-23T04:02:03;1.50;;;1.40;;
21831;SDS011;11078;49.872;6.188;2022-08-23T04:04:29;2.45;;;1.58;;
21831;SDS011;11078;49.872;6.188;2022-08-23T04:06:56;3.13;;;1.73;;
21831;SDS011;11078;49.872;6.188;2022-08-23T04:09:22;2.55;;;1.73;;
21831;SDS011;11078;49.872;6.188;2022-08-23T04:11:47;4.10;;;1.70;;
21831;SDS011;11078;49.872;6.188;2022-08-23T04:14:15;4.15;;;1.42;;
21831;SDS011;11078;49.872;6.188;2022-08-23T04:16:41;2.50;;;1.60;;
21831;SDS011;11078;49.872;6.188;2022-08-23T04:19:09;2.08;;;1.70;;
21831;SDS011;11078;49.872;6.188;2022-08-23T04:21:37;4.53;;;1.80;;
21831;SDS011;11078;49.872;6.188;2022-08-23T04:24:05;1.95;;;1.77;;
21831;SDS011;11078;49.872;6.188;2022-08-23T04:26:31;2.15;;;1.60;;
21831;SDS011;11078;49.872;6.188;2022-08-23T04:28:58;2.92;;;1.77;;
21831;SDS011;11078;49.872;6.188;2022-08-23T04:31:24;2.83;;;1.80;;
21831;SDS011;11078;49.872;6.188;2022-08-23T04:33:51;2.65;;;2.00;;
21831;SDS011;11078;49.872;6.188;2022-08-23T04:36:17;2.25;;;1.70;;
21831;SDS011;11078;49.872;6.188;2022-08-23T04:38:44;3.28;;;1.90;;
21831;SDS011;11078;49.872;6.188;2022-08-23T04:41:10;3.83;;;1.83;;
21831;SDS011;11078;49.872;6.188;2022-08-23T04:43:51;1.60;;;1.50;;
21831;SDS011;11078;49.872;6.188;2022-08-23T04:46:17;3.40;;;1.85;;
21831;SDS011;11078;49.872;6.188;2022-08-23T04:48:43;2.15;;;1.70;;
21831;SDS011;11078;49.872;6.188;2022-08-23T04:51:10;3.72;;;1.67;;
21831;SDS011;11078;49.872;6.188;2022-08-23T04:53:37;1.63;;;1.45;;
21831;SDS011;11078;49.872;6.188;2022-08-23T04:56:04;2.03;;;1.60;;
21831;SDS011;11078;49.872;6.188;2022-08-23T04:58:31;2.92;;;1.80;;
21831;SDS011;11078;49.872;6.188;2022-08-23T05:00:58;1.50;;;1.40;;
21831;SDS011;11078;49.872;6.188;2022-08-23T05:03:28;5.32;;;1.70;;
21831;SDS011;11078;49.872;6.188;2022-08-23T05:05:56;1.55;;;1.45;;
21831;SDS011;11078;49.872;6.188;2022-08-23T05:08:23;2.28;;;1.70;;
21831;SDS011;11078;49.872;6.188;2022-08-23T05:10:50;1.83;;;1.50;;
21831;SDS011;11078;49.872;6.188;2022-08-23T05:13:16;2.15;;;1.95;;
21831;SDS011;11078;49.872;6.188;2022-08-23T05:15:42;2.05;;;1.60;;
21831;SDS011;11078;49.872;6.188;2022-08-23T05:18:09;2.75;;;1.80;;
21831;SDS011;11078;49.872;6.188;2022-08-23T05:20:35;2.92;;;1.95;;
21831;SDS011;11078;49.872;6.188;2022-08-23T05:23:01;2.22;;;2.00;;
21831;SDS011;11078;49.872;6.188;2022-08-23T05:25:28;3.08;;;2.35;;
21831;SDS011;11078;49.872;6.188;2022-08-23T05:28:14;2.78;;;2.00;;
21831;SDS011;11078;49.872;6.188;2022-08-23T05:30:42;5.78;;;1.70;;
21831;SDS011;11078;49.872;6.188;2022-08-23T05:33:09;2.60;;;1.75;;
21831;SDS011;11078;49.872;6.188;2022-08-23T05:35:36;5.20;;;1.98;;
21831;SDS011;11078;49.872;6.188;2022-08-23T05:38:04;2.03;;;1.80;;
21831;SDS011;11078;49.872;6.188;2022-08-23T05:40:30;5.32;;;1.70;;
21831;SDS011;11078;49.872;6.188;2022-08-23T05:42:56;2.45;;;1.67;;
21831;SDS011;11078;49.872;6.188;2022-08-23T05:45:22;3.22;;;1.70;;
21831;SDS011;11078;49.872;6.188;2022-08-23T05:47:48;2.50;;;1.67;;
21831;SDS011;11078;49.872;6.188;2022-08-23T05:50:14;7.90;;;1.73;;
21831;SDS011;11078;49.872;6.188;2022-08-23T05:52:40;4.32;;;1.80;;
21831;SDS011;11078;49.872;6.188;2022-08-23T05:55:06;4.47;;;1.85;;
21831;SDS011;11078;49.872;6.188;2022-08-23T05:57:34;6.03;;;2.13;;
21831;SDS011;11078;49.872;6.188;2022-08-23T06:00:04;2.47;;;1.67;;
21831;SDS011;11078;49.872;6.188;2022-08-23T06:02:34;4.70;;;2.30;;
21831;SDS011;11078;49.872;6.188;2022-08-23T06:05:01;2.50;;;1.92;;
21831;SDS011;11078;49.872;6.188;2022-08-23T06:07:27;5.30;;;2.45;;
21831;SDS011;11078;49.872;6.188;2022-08-23T06:09:53;3.65;;;2.40;;
21831;SDS011;11078;49.872;6.188;2022-08-23T06:12:19;3.72;;;2.45;;
21831;SDS011;11078;49.872;6.188;2022-08-23T06:14:45;3.08;;;2.75;;
21831;SDS011;11078;49.872;6.188;2022-08-23T06:17:11;3.53;;;2.40;;
21831;SDS011;11078;49.872;6.188;2022-08-23T06:19:37;2.90;;;2.30;;
21831;SDS011;11078;49.872;6.188;2022-08-23T06:22:03;5.25;;;2.30;;
21831;SDS011;11078;49.872;6.188;2022-08-23T06:24:29;3.00;;;2.50;;
21831;SDS011;11078;49.872;6.188;2022-08-23T06:26:55;2.80;;;2.30;;
21831;SDS011;11078;49.872;6.188;2022-08-23T06:29:21;2.90;;;2.03;;
21831;SDS011;11078;49.872;6.188;2022-08-23T06:31:48;5.25;;;2.35;;
21831;SDS011;11078;49.872;6.188;2022-08-23T06:34:32;2.78;;;1.90;;
21831;SDS011;11078;49.872;6.188;2022-08-23T06:37:05;2.25;;;2.05;;
21831;SDS011;11078;49.872;6.188;2022-08-23T06:39:34;5.40;;;2.15;;
21831;SDS011;11078;49.872;6.188;2022-08-23T06:42:03;2.47;;;2.08;;
21831;SDS011;11078;49.872;6.188;2022-08-23T06:44:35;2.58;;;1.70;;
21831;SDS011;11078;49.872;6.188;2022-08-23T06:47:02;2.55;;;2.17;;
21831;SDS011;11078;49.872;6.188;2022-08-23T06:49:30;2.33;;;2.00;;
21831;SDS011;11078;49.872;6.188;2022-08-23T06:51:57;5.95;;;1.80;;
21831;SDS011;11078;49.872;6.188;2022-08-23T06:54:27;5.75;;;1.70;;
21831;SDS011;11078;49.872;6.188;2022-08-23T06:56:55;4.43;;;1.90;;
21831;SDS011;11078;49.872;6.188;2022-08-23T06:59:22;3.25;;;1.75;;
21831;SDS011;11078;49.872;6.188;2022-08-23T07:01:51;3.97;;;1.75;;
21831;SDS011;11078;49.872;6.188;2022-08-23T07:04:24;4.75;;;2.13;;
21831;SDS011;11078;49.872;6.188;2022-08-23T07:06:53;4.43;;;2.05;;
21831;SDS011;11078;49.872;6.188;2022-08-23T07:09:19;5.28;;;2.00;;
21831;SDS011;11078;49.872;6.188;2022-08-23T07:11:45;1.52;;;1.25;;
21831;SDS011;11078;49.872;6.188;2022-08-23T07:14:12;3.03;;;1.80;;
21831;SDS011;11078;49.872;6.188;2022-08-23T07:16:42;2.85;;;1.60;;
21831;SDS011;11078;49.872;6.188;2022-08-23T07:19:10;4.03;;;1.75;;
21831;SDS011;11078;49.872;6.188;2022-08-23T07:21:37;3.05;;;1.63;;
21831;SDS011;11078;49.872;6.188;2022-08-23T07:24:03;2.67;;;1.70;;
21831;SDS011;11078;49.872;6.188;2022-08-23T07:26:30;2.30;;;1.65;;
21831;SDS011;11078;49.872;6.188;2022-08-23T07:28:56;9.05;;;1.70;;
21831;SDS011;11078;49.872;6.188;2022-08-23T07:31:24;4.53;;;2.13;;
21831;SDS011;11078;49.872;6.188;2022-08-23T07:33:53;3.60;;;2.00;;
21831;SDS011;11078;49.872;6.188;2022-08-23T07:36:20;3.88;;;1.60;;
21831;SDS011;11078;49.872;6.188;2022-08-23T07:38:47;3.78;;;1.85;;
21831;SDS011;11078;49.872;6.188;2022-08-23T07:41:14;3.42;;;1.95;;
21831;SDS011;11078;49.872;6.188;2022-08-23T07:43:42;3.83;;;1.90;;
21831;SDS011;11078;49.872;6.188;2022-08-23T07:46:08;4.43;;;1.60;;
21831;SDS011;11078;49.872;6.188;2022-08-23T07:48:35;2.33;;;1.75;;
21831;SDS011;11078;49.872;6.188;2022-08-23T07:51:03;3.88;;;1.60;;
21831;SDS011;11078;49.872;6.188;2022-08-23T07:53:31;7.40;;;1.77;;
21831;SDS011;11078;49.872;6.188;2022-08-23T07:55:58;3.92;;;1.90;;
21831;SDS011;11078;49.872;6.188;2022-08-23T07:58:24;3.80;;;1.55;;
21831;SDS011;11078;49.872;6.188;2022-08-23T08:00:51;3.50;;;1.70;;
21831;SDS011;11078;49.872;6.188;2022-08-23T08:03:18;2.83;;;2.13;;
21831;SDS011;11078;49.872;6.188;2022-08-23T08:05:44;4.78;;;2.00;;
21831;SDS011;11078;49.872;6.188;2022-08-23T08:08:10;6.22;;;1.80;;
21831;SDS011;11078;49.872;6.188;2022-08-23T08:10:38;7.68;;;1.95;;
21831;SDS011;11078;49.872;6.188;2022-08-23T08:13:06;4.50;;;1.98;;
21831;SDS011;11078;49.872;6.188;2022-08-23T08:15:32;5.60;;;1.75;;
21831;SDS011;11078;49.872;6.188;2022-08-23T08:17:59;3.58;;;1.70;;
21831;SDS011;11078;49.872;6.188;2022-08-23T08:20:26;3.65;;;1.58;;
21831;SDS011;11078;49.872;6.188;2022-08-23T08:22:53;5.05;;;2.22;;
21831;SDS011;11078;49.872;6.188;2022-08-23T08:25:20;5.70;;;1.42;;
21831;SDS011;11078;49.872;6.188;2022-08-23T08:27:46;6.32;;;1.70;;
21831;SDS011;11078;49.872;6.188;2022-08-23T08:30:12;8.88;;;1.85;;
21831;SDS011;11078;49.872;6.188;2022-08-23T08:32:38;5.55;;;1.65;;
21831;SDS011;11078;49.872;6.188;2022-08-23T08:35:06;4.70;;;1.70;;
21831;SDS011;11078;49.872;6.188;2022-08-23T08:37:32;4.40;;;1.95;;
21831;SDS011;11078;49.872;6.188;2022-08-23T08:40:00;2.80;;;1.70;;
21831;SDS011;11078;49.872;6.188;2022-08-23T08:45:43;5.82;;;1.73;;
21831;SDS011;11078;49.872;6.188;2022-08-23T08:48:25;2.63;;;1.58;;
21831;SDS011;11078;49.872;6.188;2022-08-23T08:50:56;7.05;;;1.92;;
21831;SDS011;11078;49.872;6.188;2022-08-23T08:53:29;3.40;;;1.55;;
21831;SDS011;11078;49.872;6.188;2022-08-23T08:56:02;2.90;;;1.35;;
21831;SDS011;11078;49.872;6.188;2022-08-23T08:58:44;5.10;;;1.58;;
21831;SDS011;11078;49.872;6.188;2022-08-23T09:01:15;3.10;;;1.50;;
21831;SDS011;11078;49.872;6.188;2022-08-23T09:03:42;6.25;;;1.65;;
21831;SDS011;11078;49.872;6.188;2022-08-23T09:06:13;3.17;;;1.38;;
21831;SDS011;11078;49.872;6.188;2022-08-23T09:20:13;3.60;;;1.08;;
21831;SDS011;11078;49.872;6.188;2022-08-23T09:22:42;2.10;;;1.00;;
21831;SDS011;11078;49.872;6.188;2022-08-23T09:25:15;2.63;;;0.85;;
21831;SDS011;11078;49.872;6.188;2022-08-23T09:27:43;1.10;;;0.88;;
21831;SDS011;11078;49.872;6.188;2022-08-23T09:30:11;1.35;;;0.93;;
21831;SDS011;11078;49.872;6.188;2022-08-23T09:32:40;2.60;;;0.90;;
21831;SDS011;11078;49.872;6.188;2022-08-23T09:35:12;2.60;;;0.75;;
21831;SDS011;11078;49.872;6.188;2022-08-23T09:40:35;1.73;;;1.00;;
21831;SDS011;11078;49.872;6.188;2022-08-23T09:45:55;1.08;;;0.70;;
21831;SDS011;11078;49.872;6.188;2022-08-23T09:48:33;1.02;;;0.70;;
21831;SDS011;11078;49.872;6.188;2022-08-23T09:51:11;1.15;;;0.65;;
21831;SDS011;11078;49.872;6.188;2022-08-23T09:53:47;1.60;;;0.57;;
21831;SDS011;11078;49.872;6.188;2022-08-23T09:56:17;1.55;;;0.90;;
21831;SDS011;11078;49.872;6.188;2022-08-23T09:58:48;2.35;;;0.70;;
21831;SDS011;11078;49.872;6.188;2022-08-23T10:04:10;2.00;;;0.82;;
21831;SDS011;11078;49.872;6.188;2022-08-23T10:06:41;1.02;;;0.70;;
21831;SDS011;11078;49.872;6.188;2022-08-23T10:09:16;3.30;;;0.90;;
21831;SDS011;11078;49.872;6.188;2022-08-23T10:11:49;5.47;;;1.20;;
21831;SDS011;11078;49.872;6.188;2022-08-23T10:14:16;0.90;;;0.70;;
21831;SDS011;11078;49.872;6.188;2022-08-23T10:19:36;2.40;;;0.80;;
21831;SDS011;11078;49.872;6.188;2022-08-23T10:25:02;0.80;;;0.68;;
21831;SDS011;11078;49.872;6.188;2022-08-23T10:27:50;1.27;;;0.80;;
21831;SDS011;11078;49.872;6.188;2022-08-23T10:30:47;1.42;;;0.70;;
21831;SDS011;11078;49.872;6.188;2022-08-23T10:33:37;1.77;;;0.63;;
21831;SDS011;11078;49.872;6.188;2022-08-23T10:39:23;0.50;;;0.47;;
21831;SDS011;11078;49.872;6.188;2022-08-23T10:44:48;0.93;;;0.55;;
21831;SDS011;11078;49.872;6.188;2022-08-23T10:47:33;2.88;;;0.60;;
21831;SDS011;11078;49.872;6.188;2022-08-23T10:50:05;0.50;;;0.50;;
21831;SDS011;11078;49.872;6.188;2022-08-23T10:52:37;0.95;;;0.50;;
21831;SDS011;11078;49.872;6.188;2022-08-23T10:55:17;1.83;;;0.50;;
21831;SDS011;11078;49.872;6.188;2022-08-23T10:57:59;1.60;;;0.60;;
21831;SDS011;11078;49.872;6.188;2022-08-23T11:00:29;0.98;;;0.57;;
21831;SDS011;11078;49.872;6.188;2022-08-23T11:03:06;1.40;;;0.50;;
21831;SDS011;11078;49.872;6.188;2022-08-23T11:05:43;2.38;;;0.45;;
21831;SDS011;11078;49.872;6.188;2022-08-23T11:08:44;0.85;;;0.50;;
21831;SDS011;11078;49.872;6.188;2022-08-23T11:14:02;0.55;;;0.50;;
21831;SDS011;11078;49.872;6.188;2022-08-23T11:16:28;2.22;;;0.70;;
21831;SDS011;11078;49.872;6.188;2022-08-23T11:18:55;1.17;;;0.60;;
21831;SDS011;11078;49.872;6.188;2022-08-23T11:21:41;6.63;;;0.68;;
21831;SDS011;11078;49.872;6.188;2022-08-23T11:24:27;0.95;;;0.52;;
21831;SDS011;11078;49.872;6.188;2022-08-23T11:27:00;2.13;;;0.50;;
21831;SDS011;11078;49.872;6.188;2022-08-23T11:29:28;0.88;;;0.73;;
21831;SDS011;11078;49.872;6.188;2022-08-23T11:31:57;2.15;;;0.70;;
21831;SDS011;11078;49.872;6.188;2022-08-23T11:34:39;1.75;;;0.70;;
21831;SDS011;11078;49.872;6.188;2022-08-23T11:37:22;2.35;;;0.60;;
21831;SDS011;11078;49.872;6.188;2022-08-23T11:40:04;1.23;;;0.60;;
21831;SDS011;11078;49.872;6.188;2022-08-23T11:42:46;1.17;;;0.70;;
21831;SDS011;11078;49.872;6.188;2022-08-23T11:48:15;0.68;;;0.55;;
21831;SDS011;11078;49.872;6.188;2022-08-23T11:51:07;5.18;;;0.82;;
21831;SDS011;11078;49.872;6.188;2022-08-23T11:53:48;1.27;;;0.75;;
21831;SDS011;11078;49.872;6.188;2022-08-23T11:56:32;1.58;;;0.85;;
21831;SDS011;11078;49.872;6.188;2022-08-23T12:04:57;1.35;;;0.63;;
21831;SDS011;11078;49.872;6.188;2022-08-23T12:10:10;4.35;;;0.70;;
21831;SDS011;11078;49.872;6.188;2022-08-23T12:12:41;1.35;;;0.60;;
21831;SDS011;11078;49.872;6.188;2022-08-23T12:15:07;2.20;;;0.70;;
21831;SDS011;11078;49.872;6.188;2022-08-23T12:17:55;0.70;;;0.57;;
21831;SDS011;11078;49.872;6.188;2022-08-23T12:20:32;0.65;;;0.50;;
21831;SDS011;11078;49.872;6.188;2022-08-23T12:23:03;1.58;;;0.80;;
21831;SDS011;11078;49.872;6.188;2022-08-23T12:25:35;2.22;;;0.50;;
21831;SDS011;11078;49.872;6.188;2022-08-23T12:28:05;0.40;;;0.40;;
21831;SDS011;11078;49.872;6.188;2022-08-23T12:30:49;0.68;;;0.63;;
21831;SDS011;11078;49.872;6.188;2022-08-23T12:33:42;1.65;;;0.80;;
21831;SDS011;11078;49.872;6.188;2022-08-23T12:36:19;0.90;;;0.50;;
21831;SDS011;11078;49.872;6.188;2022-08-23T12:38:59;0.98;;;0.50;;
21831;SDS011;11078;49.872;6.188;2022-08-23T12:41:34;0.55;;;0.55;;
21831;SDS011;11078;49.872;6.188;2022-08-23T12:44:16;1.20;;;0.63;;
21831;SDS011;11078;49.872;6.188;2022-08-23T12:46:45;0.98;;;0.68;;
21831;SDS011;11078;49.872;6.188;2022-08-23T12:55:17;2.90;;;0.70;;
21831;SDS011;11078;49.872;6.188;2022-08-23T12:57:49;1.98;;;0.80;;
21831;SDS011;11078;49.872;6.188;2022-08-23T13:00:23;1.98;;;0.63;;
21831;SDS011;11078;49.872;6.188;2022-08-23T13:02:56;2.63;;;0.50;;
21831;SDS011;11078;49.872;6.188;2022-08-23T13:05:45;2.08;;;0.65;;
21831;SDS011;11078;49.872;6.188;2022-08-23T13:08:16;0.60;;;0.50;;
21831;SDS011;11078;49.872;6.188;2022-08-23T13:10:47;1.10;;;0.60;;
21831;SDS011;11078;49.872;6.188;2022-08-23T13:13:15;1.13;;;0.73;;
21831;SDS011;11078;49.872;6.188;2022-08-23T13:15:49;2.05;;;0.73;;
21831;SDS011;11078;49.872;6.188;2022-08-23T13:18:23;1.95;;;0.50;;
21831;SDS011;11078;49.872;6.188;2022-08-23T13:23:54;4.00;;;0.57;;
21831;SDS011;11078;49.872;6.188;2022-08-23T13:26:26;1.65;;;0.60;;
21831;SDS011;11078;49.872;6.188;2022-08-23T13:34:47;1.85;;;0.65;;
21831;SDS011;11078;49.872;6.188;2022-08-23T13:37:26;1.08;;;0.70;;
21831;SDS011;11078;49.872;6.188;2022-08-23T13:39:57;10.65;;;1.02;;
21831;SDS011;11078;49.872;6.188;2022-08-23T13:42:26;3.97;;;0.75;;
21831;SDS011;11078;49.872;6.188;2022-08-23T13:45:12;2.22;;;0.90;;
21831;SDS011;11078;49.872;6.188;2022-08-23T13:47:49;2.05;;;0.63;;
21831;SDS011;11078;49.872;6.188;2022-08-23T13:50:22;7.35;;;0.73;;
21831;SDS011;11078;49.872;6.188;2022-08-23T13:52:51;1.45;;;0.50;;
21831;SDS011;11078;49.872;6.188;2022-08-23T13:55:17;1.73;;;0.60;;
21831;SDS011;11078;49.872;6.188;2022-08-23T13:57:43;2.20;;;0.60;;
21831;SDS011;11078;49.872;6.188;2022-08-23T14:00:09;3.22;;;0.77;;
21831;SDS011;11078;49.872;6.188;2022-08-23T14:02:36;2.63;;;0.65;;
21831;SDS011;11078;49.872;6.188;2022-08-23T14:05:04;1.58;;;0.70;;
21831;SDS011;11078;49.872;6.188;2022-08-23T14:07:32;0.68;;;0.40;;
21831;SDS011;11078;49.872;6.188;2022-08-23T14:09:58;0.50;;;0.43;;
21831;SDS011;11078;49.872;6.188;2022-08-23T14:12:26;1.75;;;0.80;;
21831;SDS011;11078;49.872;6.188;2022-08-23T14:14:55;0.57;;;0.57;;
21831;SDS011;11078;49.872;6.188;2022-08-23T14:17:22;1.27;;;0.50;;
21831;SDS011;11078;49.872;6.188;2022-08-23T14:19:48;1.58;;;0.70;;
21831;SDS011;11078;49.872;6.188;2022-08-23T14:22:14;1.05;;;0.60;;
21831;SDS011;11078;49.872;6.188;2022-08-23T14:24:42;0.82;;;0.57;;
21831;SDS011;11078;49.872;6.188;2022-08-23T14:27:08;1.52;;;0.65;;
21831;SDS011;11078;49.872;6.188;2022-08-23T14:29:35;1.42;;;0.45;;
21831;SDS011;11078;49.872;6.188;2022-08-23T14:32:02;1.27;;;0.70;;
21831;SDS011;11078;49.872;6.188;2022-08-23T14:34:28;0.70;;;0.50;;
21831;SDS011;11078;49.872;6.188;2022-08-23T14:36:55;1.95;;;0.60;;
21831;SDS011;11078;49.872;6.188;2022-08-23T14:39:22;3.38;;;0.95;;
21831;SDS011;11078;49.872;6.188;2022-08-23T14:41:48;1.38;;;0.40;;
21831;SDS011;11078;49.872;6.188;2022-08-23T14:44:15;1.20;;;0.55;;
21831;SDS011;11078;49.872;6.188;2022-08-23T14:46:42;0.55;;;0.50;;
21831;SDS011;11078;49.872;6.188;2022-08-23T14:49:09;1.85;;;0.80;;
21831;SDS011;11078;49.872;6.188;2022-08-23T14:51:38;0.40;;;0.40;;
21831;SDS011;11078;49.872;6.188;2022-08-23T14:54:09;2.47;;;0.60;;
21831;SDS011;11078;49.872;6.188;2022-08-23T14:56:40;2.25;;;0.50;;
21831;SDS011;11078;49.872;6.188;2022-08-23T14:59:06;1.13;;;0.57;;
21831;SDS011;11078;49.872;6.188;2022-08-23T15:01:32;6.72;;;0.70;;
21831;SDS011;11078;49.872;6.188;2022-08-23T15:03:58;2.60;;;0.50;;
21831;SDS011;11078;49.872;6.188;2022-08-23T15:06:25;1.35;;;0.50;;
21831;SDS011;11078;49.872;6.188;2022-08-23T15:08:52;1.20;;;0.50;;
21831;SDS011;11078;49.872;6.188;2022-08-23T15:11:18;0.50;;;0.40;;
21831;SDS011;11078;49.872;6.188;2022-08-23T15:13:44;0.50;;;0.40;;
21831;SDS011;11078;49.872;6.188;2022-08-23T15:16:11;0.93;;;0.55;;
21831;SDS011;11078;49.872;6.188;2022-08-23T15:18:39;2.15;;;0.60;;
21831;SDS011;11078;49.872;6.188;2022-08-23T15:21:11;3.30;;;0.50;;
21831;SDS011;11078;49.872;6.188;2022-08-23T15:23:39;2.33;;;0.50;;
21831;SDS011;11078;49.872;6.188;2022-08-23T15:26:06;0.85;;;0.40;;
21831;SDS011;11078;49.872;6.188;2022-08-23T15:28:33;1.60;;;0.60;;
21831;SDS011;11078;49.872;6.188;2022-08-23T15:31:00;1.15;;;0.60;;
21831;SDS011;11078;49.872;6.188;2022-08-23T15:33:26;0.90;;;0.45;;
21831;SDS011;11078;49.872;6.188;2022-08-23T15:35:55;2.38;;;0.50;;
21831;SDS011;11078;49.872;6.188;2022-08-23T15:38:22;0.85;;;0.50;;
21831;SDS011;11078;49.872;6.188;2022-08-23T15:40:49;1.23;;;0.63;;
21831;SDS011;11078;49.872;6.188;2022-08-23T15:43:17;2.95;;;0.50;;
21831;SDS011;11078;49.872;6.188;2022-08-23T15:45:45;1.25;;;0.60;;
21831;SDS011;11078;49.872;6.188;2022-08-23T15:48:15;2.17;;;0.60;;
21831;SDS011;11078;49.872;6.188;2022-08-23T15:50:48;1.10;;;0.82;;
21831;SDS011;11078;49.872;6.188;2022-08-23T15:53:15;0.40;;;0.40;;
21831;SDS011;11078;49.872;6.188;2022-08-23T15:55:41;0.80;;;0.57;;
21831;SDS011;11078;49.872;6.188;2022-08-23T15:58:12;0.40;;;0.40;;
21831;SDS011;11078;49.872;6.188;2022-08-23T16:00:43;0.40;;;0.40;;
21831;SDS011;11078;49.872;6.188;2022-08-23T16:03:09;1.55;;;0.40;;
21831;SDS011;11078;49.872;6.188;2022-08-23T16:05:36;1.55;;;0.50;;
21831;SDS011;11078;49.872;6.188;2022-08-23T16:08:04;1.35;;;0.40;;